createdAt,value
2019-02-27T00:00:05.408Z,17.47
2019-02-27T00:01:05.410Z,17.66
2019-02-27T00:02:05.413Z,17.47
2019-02-27T00:03:05.420Z,17.66
2019-02-27T00:04:05.421Z,17.66
2019-02-27T00:05:05.970Z,17.76
2019-02-27T00:06:05.431Z,17.47
2019-02-27T00:07:05.429Z,17.57
2019-02-27T00:08:05.441Z,17.57
2019-02-27T00:09:05.433Z,17.47
2019-02-27T00:10:06.159Z,17.47
2019-02-27T00:11:05.439Z,17.47
2019-02-27T00:12:05.442Z,17.47
2019-02-27T00:13:05.446Z,17.47
2019-02-27T00:14:05.450Z,17.57
2019-02-27T00:15:05.967Z,17.47
2019-02-27T00:16:05.454Z,17.47
2019-02-27T00:17:05.459Z,17.47
2019-02-27T00:18:05.459Z,17.47
2019-02-27T00:19:05.464Z,17.47
2019-02-27T00:20:05.482Z,17.47
2019-02-27T00:21:10.036Z,17.47
2019-02-27T00:22:05.474Z,17.47
2019-02-27T00:23:05.478Z,17.47
2019-02-27T00:24:05.526Z,17.47
2019-02-27T00:25:05.484Z,17.47
2019-02-27T00:26:08.823Z,17.47
2019-02-27T00:27:05.485Z,17.57
2019-02-27T00:28:05.488Z,17.47
2019-02-27T00:29:05.493Z,17.47
2019-02-27T00:30:05.884Z,17.47
2019-02-27T00:31:05.499Z,17.47
2019-02-27T00:32:05.501Z,17.47
2019-02-27T00:33:05.504Z,17.47
2019-02-27T00:34:05.506Z,17.66
2019-02-27T00:35:07.219Z,17.47
2019-02-27T00:36:05.511Z,17.57
2019-02-27T00:37:05.514Z,17.47
2019-02-27T00:38:05.518Z,17.47
2019-02-27T00:39:05.519Z,17.47
2019-02-27T00:40:06.244Z,17.57
2019-02-27T00:41:05.525Z,17.47
2019-02-27T00:42:05.529Z,17.57
2019-02-27T00:43:05.531Z,17.47
2019-02-27T00:44:05.534Z,17.57
2019-02-27T00:45:07.024Z,17.47
2019-02-27T00:46:05.542Z,17.47
2019-02-27T00:47:05.542Z,17.47
2019-02-27T00:48:05.548Z,17.47
2019-02-27T00:49:05.549Z,17.66
2019-02-27T00:50:06.508Z,17.66
2019-02-27T00:51:05.555Z,17.47
2019-02-27T00:52:05.558Z,17.47
2019-02-27T00:53:05.559Z,17.66
2019-02-27T00:54:05.562Z,17.66
2019-02-27T00:55:05.570Z,17.66
2019-02-27T00:56:05.567Z,17.66
2019-02-27T00:57:05.575Z,17.66
2019-02-27T00:58:05.577Z,17.66
2019-02-27T00:59:05.578Z,17.66
2019-02-27T01:00:06.642Z,17.76
2019-02-27T01:01:05.582Z,17.66
2019-02-27T01:02:05.585Z,17.66
2019-02-27T01:03:05.589Z,17.76
2019-02-27T01:04:05.591Z,17.76
2019-02-27T01:05:06.268Z,17.76
2019-02-27T01:06:05.597Z,17.66
2019-02-27T01:07:05.600Z,17.76
2019-02-27T01:08:05.604Z,17.76
2019-02-27T01:09:06.388Z,17.86
2019-02-27T01:10:05.612Z,17.76
2019-02-27T01:11:05.611Z,17.86
2019-02-27T01:12:05.614Z,17.96
2019-02-27T01:13:05.617Z,17.96
2019-02-27T01:14:05.621Z,17.66
2019-02-27T01:15:07.903Z,18.05
2019-02-27T01:16:05.629Z,17.66
2019-02-27T01:17:05.628Z,17.76
2019-02-27T01:18:05.631Z,17.66
2019-02-27T01:19:05.635Z,17.57
2019-02-27T01:20:05.637Z,17.66
2019-02-27T01:21:05.640Z,17.57
2019-02-27T01:22:05.643Z,17.66
2019-02-27T01:23:05.646Z,17.96
2019-02-27T01:24:05.655Z,17.86
2019-02-27T01:25:05.666Z,17.76
2019-02-27T01:26:05.660Z,17.76
2019-02-27T01:27:05.659Z,17.66
2019-02-27T01:28:05.659Z,17.66
2019-02-27T01:29:05.665Z,17.57
2019-02-27T01:30:05.667Z,17.66
2019-02-27T01:31:05.674Z,17.86
2019-02-27T01:32:05.672Z,17.76
2019-02-27T01:33:05.675Z,17.66
2019-02-27T01:34:05.686Z,17.76
2019-02-27T01:35:05.680Z,17.76
2019-02-27T01:36:05.683Z,17.76
2019-02-27T01:37:05.685Z,17.76
2019-02-27T01:38:05.907Z,17.66
2019-02-27T01:39:05.691Z,17.76
2019-02-27T01:40:05.694Z,17.66
2019-02-27T01:41:05.697Z,17.76
2019-02-27T01:42:05.702Z,17.86
2019-02-27T01:43:06.391Z,17.66
2019-02-27T01:44:05.705Z,17.76
2019-02-27T01:45:05.711Z,18.05
2019-02-27T01:46:05.713Z,17.96
2019-02-27T01:47:05.715Z,18.05
2019-02-27T01:48:08.914Z,18.05
2019-02-27T01:49:05.726Z,18.05
2019-02-27T01:50:05.727Z,17.96
2019-02-27T01:51:05.762Z,17.96
2019-02-27T01:52:05.733Z,18.05
2019-02-27T01:53:07.425Z,17.96
2019-02-27T01:54:05.734Z,18.05
2019-02-27T01:55:05.743Z,17.96
2019-02-27T01:56:05.742Z,18.05
2019-02-27T01:57:05.749Z,17.96
2019-02-27T01:58:09.171Z,17.96
2019-02-27T01:59:05.754Z,17.96
2019-02-27T02:00:06.355Z,18.05
2019-02-27T02:01:05.754Z,17.96
2019-02-27T02:02:05.757Z,18.05
2019-02-27T02:03:05.760Z,17.86
2019-02-27T02:04:05.765Z,17.96
2019-02-27T02:05:05.765Z,18.15
2019-02-27T02:06:05.768Z,18.05
2019-02-27T02:07:06.597Z,17.96
2019-02-27T02:08:05.774Z,17.96
2019-02-27T02:09:05.777Z,17.96
2019-02-27T02:10:05.781Z,18.05
2019-02-27T02:11:05.782Z,18.25
2019-02-27T02:12:08.134Z,18.15
2019-02-27T02:13:05.790Z,18.15
2019-02-27T02:14:05.791Z,17.96
2019-02-27T02:15:05.795Z,18.25
2019-02-27T02:16:05.799Z,18.35
2019-02-27T02:17:07.482Z,18.35
2019-02-27T02:18:05.806Z,18.35
2019-02-27T02:19:05.808Z,18.15
2019-02-27T02:20:05.811Z,18.15
2019-02-27T02:21:05.812Z,18.05
2019-02-27T02:22:06.112Z,18.35
2019-02-27T02:23:05.817Z,18.25
2019-02-27T02:24:05.819Z,18.05
2019-02-27T02:25:05.823Z,18.05
2019-02-27T02:26:05.829Z,18.25
2019-02-27T02:27:07.768Z,18.05
2019-02-27T02:28:05.831Z,18.15
2019-02-27T02:29:05.833Z,18.15
2019-02-27T02:30:05.840Z,18.15
2019-02-27T02:31:06.526Z,18.15
2019-02-27T02:32:05.843Z,18.15
2019-02-27T02:33:05.849Z,18.15
2019-02-27T02:34:06.388Z,18.05
2019-02-27T02:35:05.851Z,18.15
2019-02-27T02:36:05.853Z,18.15
2019-02-27T02:37:05.859Z,18.15
2019-02-27T02:38:12.070Z,18.05
2019-02-27T02:39:05.864Z,18.15
2019-02-27T02:40:05.864Z,18.05
2019-02-27T02:41:08.472Z,18.05
2019-02-27T02:42:05.877Z,18.05
2019-02-27T02:43:05.877Z,17.96
2019-02-27T02:44:05.877Z,18.05
2019-02-27T02:45:05.879Z,18.05
2019-02-27T02:46:08.887Z,18.05
2019-02-27T02:47:05.886Z,18.15
2019-02-27T02:48:05.888Z,18.15
2019-02-27T02:49:07.996Z,18.05
2019-02-27T02:50:05.895Z,18.15
2019-02-27T02:51:05.900Z,18.25
2019-02-27T02:52:06.000Z,18.25
2019-02-27T02:53:05.903Z,18.15
2019-02-27T02:54:05.907Z,18.15
2019-02-27T02:55:11.979Z,18.15
2019-02-27T02:56:05.911Z,18.25
2019-02-27T02:57:05.915Z,18.15
2019-02-27T02:58:08.002Z,18.15
2019-02-27T02:59:05.919Z,18.15
2019-02-27T03:00:05.921Z,18.15
2019-02-27T03:01:05.924Z,18.25
2019-02-27T03:02:05.928Z,18.05
2019-02-27T03:03:05.934Z,18.15
2019-02-27T03:04:05.939Z,18.15
2019-02-27T03:05:05.936Z,18.35
2019-02-27T03:06:05.941Z,18.25
2019-02-27T03:07:07.192Z,18.35
2019-02-27T03:08:05.945Z,18.35
2019-02-27T03:09:05.951Z,18.15
2019-02-27T03:10:07.411Z,18.35
2019-02-27T03:11:05.954Z,18.25
2019-02-27T03:12:05.960Z,18.15
2019-02-27T03:13:07.274Z,18.25
2019-02-27T03:14:05.964Z,18.15
2019-02-27T03:15:05.966Z,18.15
2019-02-27T03:16:06.104Z,18.15
2019-02-27T03:17:05.970Z,18.05
2019-02-27T03:18:05.972Z,18.15
2019-02-27T03:19:06.534Z,18.35
2019-02-27T03:20:05.990Z,18.35
2019-02-27T03:21:05.982Z,18.25
2019-02-27T03:22:05.989Z,18.35
2019-02-27T03:23:05.991Z,18.44
2019-02-27T03:24:05.994Z,18.35
2019-02-27T03:25:05.998Z,18.15
2019-02-27T03:26:05.996Z,18.25
2019-02-27T03:27:05.999Z,18.15
2019-02-27T03:28:06.013Z,18.25
2019-02-27T03:29:06.005Z,18.44
2019-02-27T03:30:06.009Z,18.25
2019-02-27T03:31:16.364Z,18.25
2019-02-27T03:32:06.017Z,18.25
2019-02-27T03:33:06.016Z,18.44
2019-02-27T03:34:08.878Z,18.25
2019-02-27T03:35:06.033Z,18.25
2019-02-27T03:36:06.024Z,18.15
2019-02-27T03:37:06.025Z,18.25
2019-02-27T03:38:06.033Z,18.44
2019-02-27T03:39:06.086Z,18.44
2019-02-27T03:40:10.688Z,18.35
2019-02-27T03:41:06.144Z,18.35
2019-02-27T03:42:06.042Z,18.35
2019-02-27T03:43:10.145Z,18.15
2019-02-27T03:44:06.047Z,18.35
2019-02-27T03:45:06.050Z,18.35
2019-02-27T03:46:07.123Z,18.35
2019-02-27T03:47:06.065Z,18.35
2019-02-27T03:48:06.058Z,18.44
2019-02-27T03:49:06.062Z,18.35
2019-02-27T03:50:06.063Z,18.35
2019-02-27T03:51:06.067Z,18.35
2019-02-27T03:52:06.079Z,18.44
2019-02-27T03:53:10.682Z,18.35
2019-02-27T03:54:06.077Z,18.44
2019-02-27T03:55:06.079Z,18.44
2019-02-27T03:56:09.779Z,18.35
2019-02-27T03:57:06.085Z,18.25
2019-02-27T03:58:06.089Z,18.25
2019-02-27T03:59:07.515Z,18.25
2019-02-27T04:00:06.094Z,18.25
2019-02-27T04:01:06.097Z,18.25
2019-02-27T04:02:06.956Z,18.35
2019-02-27T04:03:06.113Z,18.35
2019-02-27T04:04:06.103Z,18.35
2019-02-27T04:05:07.511Z,18.15
2019-02-27T04:06:06.122Z,18.64
2019-02-27T04:07:06.113Z,18.54
2019-02-27T04:08:08.669Z,18.54
2019-02-27T04:09:06.118Z,18.44
2019-02-27T04:10:06.122Z,18.44
2019-02-27T04:11:06.848Z,18.44
2019-02-27T04:12:06.126Z,18.44
2019-02-27T04:13:06.134Z,18.64
2019-02-27T04:14:06.144Z,18.44
2019-02-27T04:15:06.138Z,18.54
2019-02-27T04:16:06.138Z,18.54
2019-02-27T04:17:07.471Z,18.44
2019-02-27T04:18:06.153Z,18.64
2019-02-27T04:19:06.148Z,18.64
2019-02-27T04:20:06.154Z,18.54
2019-02-27T04:21:06.154Z,18.44
2019-02-27T04:22:06.155Z,18.44
2019-02-27T04:23:11.262Z,18.44
2019-02-27T04:24:06.161Z,18.64
2019-02-27T04:25:06.163Z,18.64
2019-02-27T04:26:06.703Z,18.54
2019-02-27T04:27:06.170Z,18.73
2019-02-27T04:28:06.182Z,18.73
2019-02-27T04:29:08.431Z,18.54
2019-02-27T04:30:06.177Z,18.54
2019-02-27T04:31:06.188Z,18.64
2019-02-27T04:32:06.186Z,18.35
2019-02-27T04:33:06.187Z,18.44
2019-02-27T04:34:06.190Z,18.54
2019-02-27T04:35:06.861Z,18.33
2019-02-27T04:36:06.196Z,18.44
2019-02-27T04:37:06.199Z,18.33
2019-02-27T04:38:06.207Z,18.35
2019-02-27T04:39:06.205Z,18.44
2019-02-27T04:40:06.207Z,18.54
2019-02-27T04:41:06.209Z,18.44
2019-02-27T04:42:06.211Z,18.44
2019-02-27T04:43:06.215Z,18.54
2019-02-27T04:44:06.270Z,18.44
2019-02-27T04:45:06.221Z,18.44
2019-02-27T04:46:06.224Z,18.44
2019-02-27T04:47:06.226Z,18.44
2019-02-27T04:48:06.228Z,18.53
2019-02-27T04:49:06.231Z,18.54
2019-02-27T04:50:06.236Z,18.64
2019-02-27T04:51:06.240Z,18.44
2019-02-27T04:52:06.242Z,18.54
2019-02-27T04:53:06.247Z,18.44
2019-02-27T04:54:07.447Z,18.44
2019-02-27T04:55:06.253Z,18.54
2019-02-27T04:56:06.257Z,18.44
2019-02-27T04:57:06.262Z,18.44
2019-02-27T04:58:08.552Z,18.43
2019-02-27T04:59:06.266Z,18.44
2019-02-27T05:00:06.266Z,18.44
2019-02-27T05:01:06.276Z,18.44
2019-02-27T05:02:06.270Z,18.54
2019-02-27T05:03:06.272Z,18.43
2019-02-27T05:04:06.325Z,18.44
2019-02-27T05:05:08.605Z,18.44
2019-02-27T05:06:06.281Z,18.64
2019-02-27T05:07:06.285Z,18.43
2019-02-27T05:08:06.284Z,18.54
2019-02-27T05:09:06.288Z,18.54
2019-02-27T05:10:07.252Z,18.53
2019-02-27T05:11:06.292Z,18.53
2019-02-27T05:12:06.296Z,18.43
2019-02-27T05:13:06.299Z,18.43
2019-02-27T05:14:06.303Z,18.44
2019-02-27T05:15:06.306Z,18.44
2019-02-27T05:16:06.310Z,18.64
2019-02-27T05:17:06.311Z,18.44
2019-02-27T05:18:06.314Z,18.54
2019-02-27T05:19:06.331Z,18.44
2019-02-27T05:20:06.319Z,18.63
2019-02-27T05:21:06.320Z,18.44
2019-02-27T05:22:06.326Z,18.53
2019-02-27T05:23:06.330Z,18.54
2019-02-27T05:24:07.733Z,18.53
2019-02-27T05:25:06.335Z,18.43
2019-02-27T05:26:06.336Z,18.64
2019-02-27T05:27:06.339Z,18.53
2019-02-27T05:28:06.343Z,18.54
2019-02-27T05:29:06.345Z,18.63
2019-02-27T05:30:06.348Z,18.44
2019-02-27T05:31:06.351Z,18.64
2019-02-27T05:32:06.353Z,18.44
2019-02-27T05:33:06.356Z,18.54
2019-02-27T05:34:06.362Z,18.33
2019-02-27T05:35:06.367Z,18.54
2019-02-27T05:36:06.365Z,18.54
2019-02-27T05:37:06.373Z,18.54
2019-02-27T05:38:06.370Z,18.44
2019-02-27T05:39:06.378Z,18.64
2019-02-27T05:40:06.375Z,18.64
2019-02-27T05:41:06.379Z,18.54
2019-02-27T05:42:07.001Z,18.44
2019-02-27T05:43:06.382Z,18.43
2019-02-27T05:44:06.388Z,18.44
2019-02-27T05:45:06.397Z,18.54
2019-02-27T05:46:06.393Z,18.64
2019-02-27T05:47:08.616Z,18.44
2019-02-27T05:48:06.406Z,18.44
2019-02-27T05:49:06.451Z,18.64
2019-02-27T05:50:06.408Z,18.44
2019-02-27T05:51:07.674Z,18.05
2019-02-27T05:52:06.410Z,17.47
2019-02-27T05:53:06.411Z,17.28
2019-02-27T05:54:06.416Z,17.28
2019-02-27T05:55:07.086Z,17.18
2019-02-27T05:56:06.421Z,16.99
2019-02-27T05:57:06.425Z,16.89
2019-02-27T05:58:06.427Z,17.18
2019-02-27T05:59:06.432Z,17.18
2019-02-27T06:00:07.095Z,17.28
2019-02-27T06:01:06.436Z,17.28
2019-02-27T06:02:10.552Z,16.79
2019-02-27T06:03:06.441Z,16.60
2019-02-27T06:04:06.446Z,16.99
2019-02-27T06:05:06.447Z,16.60
2019-02-27T06:06:06.826Z,16.21
2019-02-27T06:07:06.453Z,16.31
2019-02-27T06:08:06.455Z,15.82
2019-02-27T06:09:09.961Z,16.31
2019-02-27T06:10:06.573Z,15.82
2019-02-27T06:11:06.477Z,15.92
2019-02-27T06:12:06.997Z,16.21
2019-02-27T06:13:06.470Z,16.31
2019-02-27T06:14:06.473Z,15.92
2019-02-27T06:15:06.478Z,15.92
2019-02-27T06:16:08.966Z,15.82
2019-02-27T06:17:06.485Z,15.63
2019-02-27T06:18:06.485Z,15.63
2019-02-27T06:19:06.588Z,15.72
2019-02-27T06:20:08.021Z,15.92
2019-02-27T06:21:06.499Z,15.92
2019-02-27T06:22:06.497Z,15.82
2019-02-27T06:23:07.310Z,15.53
2019-02-27T06:24:06.559Z,16.02
2019-02-27T06:25:06.486Z,15.64
2019-02-27T06:26:06.486Z,15.82
2019-02-27T06:27:06.918Z,16.21
2019-02-27T06:28:06.493Z,16.31
2019-02-27T06:29:06.496Z,16.22
2019-02-27T06:30:06.499Z,15.82
2019-02-27T06:31:06.501Z,15.92
2019-02-27T06:32:06.505Z,16.11
2019-02-27T06:33:06.508Z,16.12
2019-02-27T06:34:06.510Z,16.22
2019-02-27T06:35:06.515Z,16.22
2019-02-27T06:36:07.880Z,16.41
2019-02-27T06:37:06.519Z,16.31
2019-02-27T06:38:06.524Z,16.60
2019-02-27T06:39:08.630Z,16.51
2019-02-27T06:40:07.479Z,16.71
2019-02-27T06:41:06.539Z,16.80
2019-02-27T06:42:06.581Z,16.71
2019-02-27T06:43:06.559Z,16.71
2019-02-27T06:44:06.546Z,16.99
2019-02-27T06:45:06.545Z,16.71
2019-02-27T06:46:06.547Z,16.71
2019-02-27T06:47:07.249Z,16.80
2019-02-27T06:48:09.336Z,16.71
2019-02-27T06:49:06.657Z,17.19
2019-02-27T06:50:06.560Z,17.19
2019-02-27T06:51:06.565Z,17.19
2019-02-27T06:52:09.049Z,16.99
2019-02-27T06:53:06.568Z,17.19
2019-02-27T06:54:06.572Z,17.09
2019-02-27T06:55:06.574Z,17.29
2019-02-27T06:56:06.578Z,17.19
2019-02-27T06:57:07.669Z,17.19
2019-02-27T06:58:06.583Z,17.19
2019-02-27T06:59:06.587Z,17.09
2019-02-27T07:00:06.588Z,17.38
2019-02-27T07:01:09.114Z,17.38
2019-02-27T07:02:06.594Z,17.09
2019-02-27T07:03:06.599Z,17.19
2019-02-27T07:04:08.141Z,17.19
2019-02-27T07:05:06.607Z,17.48
2019-02-27T07:06:06.616Z,17.68
2019-02-27T07:07:06.616Z,17.97
2019-02-27T07:08:06.619Z,17.68
2019-02-27T07:09:11.394Z,18.07
2019-02-27T07:10:06.621Z,18.07
2019-02-27T07:11:10.937Z,18.35
2019-02-27T07:12:07.306Z,18.45
2019-02-27T07:13:06.631Z,18.55
2019-02-27T07:14:06.633Z,18.94
2019-02-27T07:15:06.636Z,18.74
2019-02-27T07:16:06.640Z,18.84
2019-02-27T07:17:06.645Z,18.84
2019-02-27T07:18:06.767Z,19.04
2019-02-27T07:19:06.648Z,18.94
2019-02-27T07:20:08.719Z,19.62
2019-02-27T07:21:06.655Z,19.71
2019-02-27T07:22:08.863Z,19.91
2019-02-27T07:23:06.661Z,19.81
2019-02-27T07:24:06.678Z,20.39
2019-02-27T07:25:07.255Z,20.10
2019-02-27T07:26:06.680Z,20.10
2019-02-27T07:27:06.673Z,20.20
2019-02-27T07:28:09.118Z,20.10
2019-02-27T07:29:06.682Z,20.20
2019-02-27T07:30:07.410Z,20.01
2019-02-27T07:31:06.685Z,20.30
2019-02-27T07:32:06.688Z,20.20
2019-02-27T07:33:07.370Z,20.10
2019-02-27T07:34:06.697Z,20.20
2019-02-27T07:35:06.701Z,20.10
2019-02-27T07:36:06.703Z,20.01
2019-02-27T07:37:06.703Z,20.01
2019-02-27T07:38:06.707Z,20.10
2019-02-27T07:39:06.717Z,20.21
2019-02-27T07:40:08.585Z,20.21
2019-02-27T07:41:06.717Z,20.40
2019-02-27T07:42:06.725Z,20.88
2019-02-27T07:43:06.722Z,20.79
2019-02-27T07:44:06.928Z,20.89
2019-02-27T07:45:08.069Z,20.68
2019-02-27T07:46:06.731Z,20.39
2019-02-27T07:47:06.743Z,20.70
2019-02-27T07:48:06.741Z,20.60
2019-02-27T07:49:06.793Z,20.79
2019-02-27T07:50:08.712Z,20.98
2019-02-27T07:51:06.751Z,20.98
2019-02-27T07:52:06.752Z,20.79
2019-02-27T07:53:06.762Z,20.89
2019-02-27T07:54:06.809Z,20.89
2019-02-27T07:55:18.514Z,21.18
2019-02-27T07:56:06.766Z,21.27
2019-02-27T07:57:06.772Z,21.18
2019-02-27T07:58:06.775Z,20.88
2019-02-27T07:59:06.825Z,20.89
2019-02-27T08:00:06.778Z,20.60
2019-02-27T08:01:06.781Z,20.70
2019-02-27T08:02:06.785Z,20.50
2019-02-27T08:03:09.304Z,20.89
2019-02-27T08:04:06.790Z,20.89
2019-02-27T08:05:06.794Z,20.60
2019-02-27T08:06:06.799Z,20.50
2019-02-27T08:07:06.801Z,20.79
2019-02-27T08:08:06.805Z,20.60
2019-02-27T08:09:06.807Z,20.50
2019-02-27T08:10:06.810Z,21.09
2019-02-27T08:11:06.814Z,20.50
2019-02-27T08:12:06.818Z,20.79
2019-02-27T08:13:06.821Z,20.70
2019-02-27T08:14:06.873Z,20.70
2019-02-27T08:15:06.832Z,20.60
2019-02-27T08:16:06.829Z,21.09
2019-02-27T08:17:17.039Z,20.70
2019-02-27T08:18:07.029Z,21.09
2019-02-27T08:19:08.933Z,20.60
2019-02-27T08:20:06.849Z,20.79
2019-02-27T08:21:06.847Z,20.99
2019-02-27T08:22:06.849Z,20.50
2019-02-27T08:23:07.001Z,20.60
2019-02-27T08:24:07.691Z,20.89
2019-02-27T08:25:06.900Z,20.50
2019-02-27T08:26:06.871Z,20.50
2019-02-27T08:27:07.118Z,21.18
2019-02-27T08:28:06.873Z,20.89
2019-02-27T08:29:06.874Z,20.60
2019-02-27T08:30:06.879Z,20.70
2019-02-27T08:31:06.878Z,20.99
2019-02-27T08:32:06.883Z,20.99
2019-02-27T08:33:08.401Z,20.70
2019-02-27T08:34:06.906Z,20.70
2019-02-27T08:35:06.893Z,20.89
2019-02-27T08:36:06.895Z,20.99
2019-02-27T08:37:06.901Z,20.99
2019-02-27T08:38:06.903Z,20.89
2019-02-27T08:39:06.908Z,20.99
2019-02-27T08:40:06.920Z,20.89
2019-02-27T08:41:06.912Z,20.60
2019-02-27T08:42:06.916Z,20.99
2019-02-27T08:43:06.919Z,20.89
2019-02-27T08:44:06.923Z,20.89
2019-02-27T08:45:06.926Z,20.99
2019-02-27T08:46:06.931Z,21.18
2019-02-27T08:47:09.804Z,21.47
2019-02-27T08:48:06.940Z,21.09
2019-02-27T08:49:06.942Z,21.57
2019-02-27T08:50:06.944Z,21.28
2019-02-27T08:51:08.706Z,21.57
2019-02-27T08:52:08.513Z,21.28
2019-02-27T08:53:06.952Z,21.57
2019-02-27T08:54:06.968Z,21.57
2019-02-27T08:55:06.961Z,21.57
2019-02-27T08:56:06.964Z,21.57
2019-02-27T08:57:06.965Z,21.77
2019-02-27T08:58:07.282Z,21.86
2019-02-27T08:59:06.975Z,21.77
2019-02-27T09:00:06.978Z,21.67
2019-02-27T09:01:06.986Z,21.67
2019-02-27T09:02:06.984Z,21.57
2019-02-27T09:03:06.989Z,21.86
2019-02-27T09:04:11.557Z,21.86
2019-02-27T09:05:06.994Z,21.57
2019-02-27T09:06:06.996Z,21.77
2019-02-27T09:07:06.998Z,21.77
2019-02-27T09:08:07.284Z,21.86
2019-02-27T09:09:07.951Z,21.67
2019-02-27T09:10:07.051Z,21.67
2019-02-27T09:11:07.012Z,21.77
2019-02-27T09:12:07.015Z,21.57
2019-02-27T09:13:07.025Z,21.86
2019-02-27T09:14:07.023Z,21.47
2019-02-27T09:15:07.028Z,21.67
2019-02-27T09:16:07.028Z,21.57
2019-02-27T09:17:07.036Z,21.68
2019-02-27T09:18:07.035Z,21.67
2019-02-27T09:19:09.440Z,21.67
2019-02-27T09:20:07.046Z,21.77
2019-02-27T09:21:07.047Z,21.47
2019-02-27T09:22:07.050Z,21.57
2019-02-27T09:23:07.054Z,21.37
2019-02-27T09:24:07.056Z,21.57
2019-02-27T09:25:07.060Z,21.58
2019-02-27T09:26:07.064Z,21.86
2019-02-27T09:27:07.068Z,21.39
2019-02-27T09:28:09.272Z,21.68
2019-02-27T09:29:07.073Z,21.47
2019-02-27T09:30:07.078Z,21.57
2019-02-27T09:31:07.079Z,21.47
2019-02-27T09:32:09.253Z,21.68
2019-02-27T09:33:07.087Z,21.58
2019-02-27T09:34:07.117Z,21.48
2019-02-27T09:35:07.095Z,21.67
2019-02-27T09:36:08.002Z,21.48
2019-02-27T09:37:07.100Z,21.09
2019-02-27T09:38:08.634Z,21.47
2019-02-27T09:39:07.158Z,21.37
2019-02-27T09:40:07.111Z,21.19
2019-02-27T09:41:07.118Z,21.37
2019-02-27T09:42:07.129Z,21.09
2019-02-27T09:43:07.120Z,21.09
2019-02-27T09:44:07.127Z,21.18
2019-02-27T09:45:08.277Z,20.99
2019-02-27T09:46:07.134Z,21.29
2019-02-27T09:47:07.135Z,20.89
2019-02-27T09:48:07.141Z,20.90
2019-02-27T09:49:07.212Z,20.90
2019-02-27T09:50:07.149Z,21.00
2019-02-27T09:51:07.158Z,20.90
2019-02-27T09:52:07.158Z,20.99
2019-02-27T09:53:07.169Z,20.89
2019-02-27T09:54:08.150Z,20.99
2019-02-27T09:55:07.162Z,20.99
2019-02-27T09:56:07.165Z,20.99
2019-02-27T09:57:07.170Z,20.79
2019-02-27T09:58:10.995Z,21.09
2019-02-27T09:59:07.179Z,21.18
2019-02-27T10:00:07.180Z,21.00
2019-02-27T10:01:07.182Z,21.09
2019-02-27T10:02:09.286Z,20.89
2019-02-27T10:03:07.189Z,20.89
2019-02-27T10:04:07.244Z,20.70
2019-02-27T10:05:07.244Z,20.89
2019-02-27T10:06:08.795Z,21.09
2019-02-27T10:07:07.205Z,20.51
2019-02-27T10:08:07.716Z,20.79
2019-02-27T10:09:07.272Z,20.80
2019-02-27T10:10:10.183Z,20.70
2019-02-27T10:11:07.216Z,20.71
2019-02-27T10:12:07.232Z,20.60
2019-02-27T10:13:07.224Z,20.90
2019-02-27T10:14:07.330Z,20.70
2019-02-27T10:15:07.232Z,20.79
2019-02-27T10:16:07.246Z,20.60
2019-02-27T10:17:09.152Z,20.50
2019-02-27T10:18:07.243Z,20.42
2019-02-27T10:19:07.294Z,20.61
2019-02-27T10:20:07.246Z,20.40
2019-02-27T10:21:09.441Z,20.61
2019-02-27T10:22:07.258Z,20.50
2019-02-27T10:23:07.260Z,20.32
2019-02-27T10:24:07.263Z,20.51
2019-02-27T10:25:08.599Z,20.32
2019-02-27T10:26:07.269Z,20.42
2019-02-27T10:27:07.273Z,20.12
2019-02-27T10:28:07.279Z,20.12
2019-02-27T10:29:07.284Z,20.12
2019-02-27T10:30:11.463Z,20.12
2019-02-27T10:31:07.286Z,20.12
2019-02-27T10:32:07.289Z,20.03
2019-02-27T10:33:07.291Z,20.12
2019-02-27T10:34:07.297Z,20.11
2019-02-27T10:35:07.302Z,20.12
2019-02-27T10:36:07.309Z,20.32
2019-02-27T10:37:07.479Z,20.32
2019-02-27T10:38:07.319Z,19.83
2019-02-27T10:39:07.371Z,19.93
2019-02-27T10:40:08.788Z,20.03
2019-02-27T10:41:07.320Z,20.03
2019-02-27T10:42:07.331Z,19.93
2019-02-27T10:43:07.328Z,19.93
2019-02-27T10:44:07.445Z,19.83
2019-02-27T10:45:09.724Z,20.03
2019-02-27T10:46:07.340Z,19.93
2019-02-27T10:47:07.341Z,19.73
2019-02-27T10:48:07.348Z,19.73
2019-02-27T10:49:07.349Z,19.73
2019-02-27T10:50:07.354Z,19.73
2019-02-27T10:51:09.429Z,19.73
2019-02-27T10:52:07.369Z,19.73
2019-02-27T10:53:07.384Z,19.73
2019-02-27T10:54:07.367Z,19.64
2019-02-27T10:55:07.371Z,19.73
2019-02-27T10:56:07.373Z,19.64
2019-02-27T10:57:07.377Z,19.64
2019-02-27T10:58:07.770Z,19.64
2019-02-27T10:59:07.382Z,19.73
2019-02-27T11:00:07.387Z,19.73
2019-02-27T11:01:07.393Z,19.83
2019-02-27T11:02:09.758Z,19.64
2019-02-27T11:03:07.399Z,19.64
2019-02-27T11:04:07.401Z,19.64
2019-02-27T11:05:07.406Z,19.54
2019-02-27T11:06:07.411Z,19.35
2019-02-27T11:07:07.413Z,19.35
2019-02-27T11:08:07.415Z,19.35
2019-02-27T11:09:07.419Z,19.35
2019-02-27T11:10:07.426Z,19.44
2019-02-27T11:11:08.731Z,19.54
2019-02-27T11:12:07.431Z,19.44
2019-02-27T11:13:07.437Z,18.96
2019-02-27T11:14:07.489Z,19.06
2019-02-27T11:15:08.177Z,19.15
2019-02-27T11:16:07.441Z,19.25
2019-02-27T11:17:07.452Z,19.25
2019-02-27T11:18:07.726Z,19.54
2019-02-27T11:19:07.504Z,19.25
2019-02-27T11:20:07.456Z,19.15
2019-02-27T11:21:07.459Z,19.35
2019-02-27T11:22:07.465Z,19.15
2019-02-27T11:23:07.803Z,19.15
2019-02-27T11:24:07.522Z,19.15
2019-02-27T11:25:07.532Z,19.15
2019-02-27T11:26:07.480Z,18.96
2019-02-27T11:27:07.490Z,18.76
2019-02-27T11:28:07.487Z,18.76
2019-02-27T11:29:07.540Z,18.86
2019-02-27T11:30:07.492Z,18.76
2019-02-27T11:31:08.440Z,18.96
2019-02-27T11:32:07.501Z,18.76
2019-02-27T11:33:07.510Z,18.66
2019-02-27T11:34:07.785Z,18.96
2019-02-27T11:35:07.515Z,18.86
2019-02-27T11:36:07.517Z,18.76
2019-02-27T11:37:12.946Z,18.86
2019-02-27T11:38:07.521Z,18.96
2019-02-27T11:39:07.524Z,18.96
2019-02-27T11:40:07.870Z,18.96
2019-02-27T11:41:07.532Z,18.76
2019-02-27T11:42:07.535Z,18.86
2019-02-27T11:43:07.696Z,18.96
2019-02-27T11:44:07.545Z,18.86
2019-02-27T11:45:07.546Z,18.86
2019-02-27T11:46:07.550Z,18.76
2019-02-27T11:47:10.929Z,18.96
2019-02-27T11:48:07.557Z,18.76
2019-02-27T11:49:07.583Z,18.76
2019-02-27T11:50:07.569Z,18.86
2019-02-27T11:51:07.568Z,18.57
2019-02-27T11:52:07.569Z,18.57
2019-02-27T11:53:07.575Z,18.66
2019-02-27T11:54:08.414Z,18.57
2019-02-27T11:55:07.585Z,18.66
2019-02-27T11:56:07.585Z,18.57
2019-02-27T11:57:07.590Z,18.37
2019-02-27T11:58:07.609Z,18.57
2019-02-27T11:59:10.230Z,18.66
2019-02-27T12:00:07.601Z,18.66
2019-02-27T12:01:07.606Z,18.47
2019-02-27T12:02:07.605Z,18.57
2019-02-27T12:03:08.583Z,18.47
2019-02-27T12:04:07.614Z,18.47
2019-02-27T12:05:07.614Z,18.66
2019-02-27T12:06:08.411Z,18.57
2019-02-27T12:07:07.627Z,18.47
2019-02-27T12:08:07.627Z,18.57
2019-02-27T12:09:07.630Z,18.57
2019-02-27T12:10:08.940Z,18.47
2019-02-27T12:11:09.693Z,18.47
2019-02-27T12:12:07.641Z,18.57
2019-02-27T12:13:07.646Z,18.57
2019-02-27T12:14:09.133Z,18.47
2019-02-27T12:15:09.119Z,18.47
2019-02-27T12:16:07.653Z,18.47
2019-02-27T12:17:07.659Z,18.57
2019-02-27T12:18:07.660Z,18.56
2019-02-27T12:19:08.750Z,18.57
2019-02-27T12:20:07.669Z,18.37
2019-02-27T12:21:07.670Z,18.57
2019-02-27T12:22:07.678Z,18.46
2019-02-27T12:23:10.157Z,18.56
2019-02-27T12:24:07.682Z,18.47
2019-02-27T12:25:07.683Z,18.27
2019-02-27T12:26:07.694Z,18.46
2019-02-27T12:27:10.398Z,18.27
2019-02-27T12:28:07.704Z,18.18
2019-02-27T12:29:07.699Z,18.18
2019-02-27T12:30:07.704Z,18.08
2019-02-27T12:31:08.187Z,17.98
2019-02-27T12:32:07.709Z,17.98
2019-02-27T12:33:07.713Z,18.18
2019-02-27T12:34:07.716Z,17.98
2019-02-27T12:35:08.235Z,18.08
2019-02-27T12:36:08.995Z,18.08
2019-02-27T12:37:16.375Z,17.98
2019-02-27T12:38:08.529Z,17.79
2019-02-27T12:39:07.785Z,17.69
2019-02-27T12:40:07.736Z,17.79
2019-02-27T12:41:07.741Z,17.79
2019-02-27T12:42:07.836Z,17.69
2019-02-27T12:43:07.749Z,17.79
2019-02-27T12:44:07.750Z,17.79
2019-02-27T12:45:07.755Z,17.69
2019-02-27T12:46:09.670Z,17.69
2019-02-27T12:47:07.764Z,17.79
2019-02-27T12:48:07.763Z,17.60
2019-02-27T12:49:07.767Z,17.50
2019-02-27T12:50:07.772Z,17.69
2019-02-27T12:51:07.775Z,17.79
2019-02-27T12:52:09.046Z,17.79